Αγία Πετρούπολη, Ρωσία

11:01 PM MSK on Μάρτιος 30, 2015 (GMT +0300)
Pulkovo | | Change Station
CLOSE
Current Station
Airport
Location: St. Petersburg,
Elevation: 75 ft
Nearby Weather Stations

Elev 75 ft 59.80 °N, 30.27 °E | Updated 31 minutes ago

Light Snow
Ασθενής Χιονόπτωση
34 ° F
Feels Like 24 ° F
N
16
Ανεμος Μεταβλητός Ανεμος from ΝΑ

Σήμερα
High -- | Low -- ° F
--% Chance of Precip.
Yesterday
High -- | Low -- ° F
Precip. -- in
6:31 AM 7:36 PM
Αμφίκυρτος, 81% visible
Ατμοσφαιρική Πίεση 29.33 in
Ορατότητα 6.2 Μίλια
Σύννεφα Νεφελώδης 1500 ft
Νεφοσκεπής 6600 ft
Δείκτης Ψυχρότητας 24 ° F
Σημείο Δρόσου 28 ° F
Υγρασία 81%
Rainfall 0.00 in
Snow Depth Not available.
Υπεριώδης ακτινοβολία (UV) 0 out of 12
Pollen Not available.
Air Quality Not available.
Flu Activity Not available.
METAR ULLI 301930Z 14007MPS 9999 -SNRA BKN015 OVC066 01/M02 Q0993 60290050 10////// NOSIG

More Conditions Fewer Conditions

Ατμοσφαιρική Πίεση 29.33 in
Ορατότητα 6.2 Μίλια
Σύννεφα Νεφελώδης 1500 ft
Νεφοσκεπής 6600 ft
Δείκτης Ψυχρότητας 24 ° F
Σημείο Δρόσου 28 ° F
Υγρασία 81%
Rainfall 0.00 in
Snow Depth Not available.
Υπεριώδης ακτινοβολία (UV) 0 out of 12
Pollen Not available.
Air Quality Not available.
Flu Activity Not available.
METAR ULLI 301930Z 14007MPS 9999 -SNRA BKN015 OVC066 01/M02 Q0993 60290050 10////// NOSIG

More Conditions Fewer Conditions

10-Day Weather Forecast

Almanac

Αστρονομία

Mar. 30, 2015 Rise Set
Actual Time
Civil Twilight
Nautical Twilight
Astronomical Twilight
Moon
Length Of Visible Light
Διάρκεια ημέρας
Tomorrow will be .
, % of the Moon is Illuminated

Today's Extremes

Country Highs Country Lows

Community

WunderPhotos

Upload Photos

1,809,578 photos uploaded!

WunderBlogs® & News

Nearby

Air Quality

  Air Quality AQ Index Pollutant
Not available.

Snow Depth

Station Depth Elevation

Earthquake Activity

City Distance Mag. Time & Date
Minimum magnitude displayed is 2.5.

Coastal Water Temperatures

Τοποθεσία Θερμοκρασία

Stations

Nearby Weather Stations

Station Location Temp Δείκτης Ψυχρότητας Σημείο Δρόσου Υγρασία Ανεμος Precip. Elev Ενημερώθηκε Type